Fort Dearborn, Illinois
Current Conditions -  °F | °C
As of 7:53 PM on Sunday 21 Dec 2014 (Local Time) from KMDW Reporting Station
Overcast Overcast  
Wind Chill: 32°   Ceiling: 2300
Heat Index: 38°   Visibility: 10mi
Dew Point: 30°   Wind: 8mph
Humidity: 73%   Direction: 150°SSE
Pressure: 30.07"   Gusts: NA
Location:  41.8946°N, 87.6187°W
Report Text: KMDW 220153Z 15007KT 10SM BKN023 OVC031 03/M01 A3007 RMK AO2 SLP192 T00331011 $
Loading
Personal Weather Stations






























Interactive Weather Map New forecast layout! Learn more

10-Day Weather Forecast

Advertisements
Track Severe Weather on mobile